createdAt,value
2022-10-02T00:00:27.624Z,9.718998
2022-10-02T00:01:27.659Z,9.719049
2022-10-02T00:02:27.596Z,9.719039
2022-10-02T00:03:27.584Z,9.719156
2022-10-02T00:04:27.566Z,9.719155
2022-10-02T00:05:27.574Z,9.719203
2022-10-02T00:06:27.578Z,9.719223
2022-10-02T00:07:27.542Z,9.719212
2022-10-02T00:08:27.529Z,9.719253
2022-10-02T00:09:27.524Z,9.719258
2022-10-02T00:10:27.522Z,9.719248
2022-10-02T00:11:27.517Z,9.719234
2022-10-02T00:12:27.523Z,9.719252
2022-10-02T00:13:27.507Z,9.719198
2022-10-02T00:14:27.482Z,9.719227
2022-10-02T00:15:27.463Z,9.719191
2022-10-02T00:16:27.499Z,9.719183
2022-10-02T00:17:27.460Z,9.719177
2022-10-02T00:18:27.468Z,9.719250
2022-10-02T00:19:27.462Z,9.719260
2022-10-02T00:20:27.418Z,9.719235
2022-10-02T00:21:27.397Z,9.719171
2022-10-02T00:22:27.406Z,9.719233
2022-10-02T00:23:27.389Z,9.719239
2022-10-02T00:24:27.434Z,9.719252
2022-10-02T00:25:27.379Z,9.719232
2022-10-02T00:26:27.353Z,9.719286
2022-10-02T00:27:27.341Z,9.719274
2022-10-02T00:28:27.408Z,9.719311
2022-10-02T00:29:27.318Z,9.719234
2022-10-02T00:30:27.331Z,9.719254
2022-10-02T00:31:27.381Z,9.719110
2022-10-02T00:32:27.300Z,9.719202
2022-10-02T00:33:27.290Z,9.719208
2022-10-02T00:34:27.281Z,9.719244
2022-10-02T00:35:27.273Z,9.719254
2022-10-02T00:36:27.276Z,9.719265
2022-10-02T00:37:27.246Z,9.719261
2022-10-02T00:38:27.237Z,9.719348
2022-10-02T00:39:27.218Z,9.719290
2022-10-02T00:40:27.213Z,9.719143
2022-10-02T00:41:28.208Z,9.719207
2022-10-02T00:42:27.188Z,9.719155
2022-10-02T00:43:27.201Z,9.719175
2022-10-02T00:44:27.169Z,9.718934
2022-10-02T00:45:27.249Z,9.718995
2022-10-02T00:46:27.173Z,9.719052
2022-10-02T00:47:27.159Z,9.718988
2022-10-02T00:48:27.130Z,9.718953
2022-10-02T00:49:27.137Z,9.719127
2022-10-02T00:50:27.118Z,9.718956
2022-10-02T00:51:27.108Z,9.719142
2022-10-02T00:52:27.129Z,9.719099
2022-10-02T00:53:27.074Z,9.719273
2022-10-02T00:54:27.077Z,9.719214
2022-10-02T00:55:27.067Z,9.719148
2022-10-02T00:56:27.054Z,9.719303
2022-10-02T00:57:27.057Z,9.719267
2022-10-02T00:58:27.040Z,9.719230
2022-10-02T00:59:27.028Z,9.719153
2022-10-02T01:00:27.031Z,9.719186
2022-10-02T01:01:27.071Z,9.719144
2022-10-02T01:02:27.035Z,9.719252
2022-10-02T01:03:27.014Z,9.719167
2022-10-02T01:04:26.981Z,9.719049
2022-10-02T01:05:26.965Z,9.719130
2022-10-02T01:06:26.951Z,9.719200
2022-10-02T01:07:26.953Z,9.719269
2022-10-02T01:08:26.945Z,9.719162
2022-10-02T01:09:26.925Z,9.719196
2022-10-02T01:10:26.926Z,9.719131
2022-10-02T01:11:26.913Z,9.719168
2022-10-02T01:12:26.915Z,9.719143
2022-10-02T01:13:26.899Z,9.719235
2022-10-02T01:14:26.874Z,9.719203
2022-10-02T01:15:26.866Z,9.719232
2022-10-02T01:16:26.962Z,9.719156
2022-10-02T01:17:26.861Z,9.719152
2022-10-02T01:18:26.839Z,9.719175
2022-10-02T01:19:26.826Z,9.719188
2022-10-02T01:20:26.811Z,9.719189
2022-10-02T01:21:26.800Z,9.719155
2022-10-02T01:22:26.811Z,9.719236
2022-10-02T01:23:26.804Z,9.719298
2022-10-02T01:24:26.779Z,9.719226
2022-10-02T01:25:26.778Z,9.719248
2022-10-02T01:26:26.763Z,9.719156
2022-10-02T01:27:26.748Z,9.719199
2022-10-02T01:28:26.838Z,9.719190
2022-10-02T01:29:26.723Z,9.719229
2022-10-02T01:30:26.720Z,9.719278
2022-10-02T01:31:26.758Z,9.719274
2022-10-02T01:32:26.706Z,9.719256
2022-10-02T01:33:26.692Z,9.719208
2022-10-02T01:34:26.700Z,9.719308
2022-10-02T01:35:26.665Z,9.719370
2022-10-02T01:36:26.685Z,9.719413
2022-10-02T01:37:26.647Z,9.719288
2022-10-02T01:38:26.633Z,9.719326
2022-10-02T01:39:26.631Z,9.719356
2022-10-02T01:40:26.625Z,9.719307
2022-10-02T01:41:26.617Z,9.719233
2022-10-02T01:42:26.586Z,9.719340
2022-10-02T01:43:26.607Z,9.719361
2022-10-02T01:44:26.576Z,9.719301
2022-10-02T01:45:26.604Z,9.719230
2022-10-02T01:46:26.572Z,9.719273
2022-10-02T01:47:26.556Z,9.719272
2022-10-02T01:48:26.537Z,9.719233
2022-10-02T01:49:26.538Z,9.719301
2022-10-02T01:50:26.519Z,9.719161
2022-10-02T01:51:26.521Z,9.719191
2022-10-02T01:52:26.486Z,9.719242
2022-10-02T01:53:26.536Z,9.719244
2022-10-02T01:54:26.481Z,9.719280
2022-10-02T01:55:26.469Z,9.719276
2022-10-02T01:56:26.460Z,9.719286
2022-10-02T01:57:26.439Z,9.719287
2022-10-02T01:58:26.443Z,9.719429
2022-10-02T01:59:26.423Z,9.719427
2022-10-02T02:00:26.448Z,9.719354
2022-10-02T02:01:26.451Z,9.719230
2022-10-02T02:02:26.463Z,9.719194
2022-10-02T02:03:26.380Z,9.719303
2022-10-02T02:04:26.385Z,9.719223
2022-10-02T02:05:26.362Z,9.719412
2022-10-02T02:06:26.352Z,9.719316
2022-10-02T02:07:26.355Z,9.719145
2022-10-02T02:08:26.353Z,9.719283
2022-10-02T02:09:26.339Z,9.719273
2022-10-02T02:10:26.321Z,9.719090
2022-10-02T02:11:26.302Z,9.719048
2022-10-02T02:12:26.306Z,9.718991
2022-10-02T02:13:26.298Z,9.718896
2022-10-02T02:14:26.292Z,9.718843
2022-10-02T02:15:26.268Z,9.718954
2022-10-02T02:16:58.190Z,9.719121
2022-10-02T02:17:26.250Z,9.719116
2022-10-02T02:18:26.248Z,9.719163
2022-10-02T02:19:26.278Z,9.719307
2022-10-02T02:20:26.259Z,9.718926
2022-10-02T02:21:26.223Z,9.718856
2022-10-02T02:22:26.221Z,9.719340
2022-10-02T02:23:26.221Z,9.719451
2022-10-02T02:24:26.181Z,9.719377
2022-10-02T02:25:26.162Z,9.719328
2022-10-02T02:26:26.157Z,9.719240
2022-10-02T02:27:26.148Z,9.719419
2022-10-02T02:28:26.230Z,9.719513
2022-10-02T02:29:26.127Z,9.719203
2022-10-02T02:30:26.133Z,9.719142
2022-10-02T02:31:26.133Z,9.719196
2022-10-02T02:32:26.117Z,9.719261
2022-10-02T02:33:26.097Z,9.719181
2022-10-02T02:34:26.101Z,9.719073
2022-10-02T02:35:26.073Z,9.719173
2022-10-02T02:36:26.070Z,9.719172
2022-10-02T02:37:26.074Z,9.719227
2022-10-02T02:38:26.042Z,9.719179
2022-10-02T02:39:26.037Z,9.719216
2022-10-02T02:40:26.029Z,9.719155
2022-10-02T02:41:26.015Z,9.719168
2022-10-02T02:42:26.463Z,9.719151
2022-10-02T02:43:26.048Z,9.719172
2022-10-02T02:44:25.981Z,9.719119
2022-10-02T02:45:26.045Z,9.719159
2022-10-02T02:46:25.961Z,9.719091
2022-10-02T02:47:25.959Z,9.719139
2022-10-02T02:48:25.969Z,9.719165
2022-10-02T02:49:25.925Z,9.719046
2022-10-02T02:50:25.937Z,9.719080
2022-10-02T02:51:25.935Z,9.719063
2022-10-02T02:52:25.909Z,9.719119
2022-10-02T02:53:25.908Z,9.719112
2022-10-02T02:54:25.907Z,9.719069
2022-10-02T02:55:25.903Z,9.719110
2022-10-02T02:56:25.860Z,9.719170
2022-10-02T02:57:25.862Z,9.718992
2022-10-02T02:58:25.869Z,9.719143
2022-10-02T02:59:25.874Z,9.719078
2022-10-02T03:00:25.829Z,9.719047
2022-10-02T03:01:25.905Z,9.719120
2022-10-02T03:02:25.889Z,9.719138
2022-10-02T03:03:25.794Z,9.719128
2022-10-02T03:04:25.792Z,9.719074
2022-10-02T03:05:25.800Z,9.719172
2022-10-02T03:06:25.774Z,9.719156
2022-10-02T03:07:25.758Z,9.719181
2022-10-02T03:08:25.739Z,9.719153
2022-10-02T03:09:25.735Z,9.719191
2022-10-02T03:10:25.756Z,9.719125
2022-10-02T03:11:25.717Z,9.719197
2022-10-02T03:12:25.762Z,9.719248
2022-10-02T03:13:25.721Z,9.719115
2022-10-02T03:14:25.701Z,9.719252
2022-10-02T03:15:25.685Z,9.719278
2022-10-02T03:16:25.688Z,9.719249
2022-10-02T03:17:25.690Z,9.719117
2022-10-02T03:18:25.663Z,9.718968
2022-10-02T03:19:25.637Z,9.718982
2022-10-02T03:20:25.637Z,9.719076
2022-10-02T03:21:25.626Z,9.719011
2022-10-02T03:22:25.618Z,9.719074
2022-10-02T03:23:25.621Z,9.719200
2022-10-02T03:24:25.601Z,9.719194
2022-10-02T03:25:25.584Z,9.719276
2022-10-02T03:26:25.587Z,9.719302
2022-10-02T03:27:25.575Z,9.719296
2022-10-02T03:28:50.545Z,9.719238
2022-10-02T03:29:27.560Z,9.719182
2022-10-02T03:30:25.537Z,9.719188
2022-10-02T03:31:25.589Z,9.719212
2022-10-02T03:32:25.531Z,9.719264
2022-10-02T03:33:25.532Z,9.719252
2022-10-02T03:34:25.495Z,9.719273
2022-10-02T03:35:25.514Z,9.719209
2022-10-02T03:36:25.474Z,9.719190
2022-10-02T03:37:25.493Z,9.719166
2022-10-02T03:38:25.462Z,9.719159
2022-10-02T03:39:26.249Z,9.719228
2022-10-02T03:40:25.453Z,9.719172
2022-10-02T03:41:25.462Z,9.719207
2022-10-02T03:42:25.419Z,9.719174
2022-10-02T03:43:25.407Z,9.719212
2022-10-02T03:44:25.422Z,9.719221
2022-10-02T03:45:49.463Z,9.719226
2022-10-02T03:46:27.412Z,9.719232
2022-10-02T03:47:25.411Z,9.719155
2022-10-02T03:48:25.366Z,9.719225
2022-10-02T03:49:25.364Z,9.719199
2022-10-02T03:50:25.340Z,9.719238
2022-10-02T03:51:25.378Z,9.719200
2022-10-02T03:52:25.336Z,9.719181
2022-10-02T03:53:25.338Z,9.719182
2022-10-02T03:54:25.303Z,9.719208
2022-10-02T03:55:25.308Z,9.719194
2022-10-02T03:56:25.296Z,9.719155
2022-10-02T03:57:25.291Z,9.719147
2022-10-02T03:58:25.281Z,9.719124
2022-10-02T03:59:25.254Z,9.719059
2022-10-02T04:00:25.253Z,9.719139
2022-10-02T04:01:25.272Z,9.719136
2022-10-02T04:02:25.218Z,9.719099
2022-10-02T04:03:26.321Z,9.718997
2022-10-02T04:04:25.216Z,9.719031
2022-10-02T04:05:25.222Z,9.719077
2022-10-02T04:06:25.191Z,9.719090
2022-10-02T04:07:25.194Z,9.719011
2022-10-02T04:08:25.198Z,9.718988
2022-10-02T04:09:25.194Z,9.719022
2022-10-02T04:10:25.165Z,9.719006
2022-10-02T04:11:25.158Z,9.719100
2022-10-02T04:12:25.140Z,9.719109
2022-10-02T04:13:25.123Z,9.718984
2022-10-02T04:14:25.131Z,9.718867
2022-10-02T04:15:25.113Z,9.718977
2022-10-02T04:16:25.198Z,9.718973
2022-10-02T04:17:25.098Z,9.719064
2022-10-02T04:18:25.077Z,9.719234
2022-10-02T04:19:25.084Z,9.718918
2022-10-02T04:20:25.050Z,9.718823
2022-10-02T04:21:25.060Z,9.718955
2022-10-02T04:22:25.032Z,9.719026
2022-10-02T04:23:25.022Z,9.719058
2022-10-02T04:24:25.007Z,9.719075
2022-10-02T04:25:25.026Z,9.719128
2022-10-02T04:26:24.996Z,9.719157
2022-10-02T04:27:25.002Z,9.719120
2022-10-02T04:28:25.025Z,9.719057
2022-10-02T04:29:24.974Z,9.719079
2022-10-02T04:30:24.983Z,9.719079
2022-10-02T04:31:24.979Z,9.719105
2022-10-02T04:32:24.927Z,9.719094
2022-10-02T04:33:24.931Z,9.719160
2022-10-02T04:34:24.916Z,9.719242
2022-10-02T04:35:24.912Z,9.719236
2022-10-02T04:36:24.924Z,9.719185
2022-10-02T04:37:24.869Z,9.719180
2022-10-02T04:38:24.864Z,9.719157
2022-10-02T04:39:25.873Z,9.719192
2022-10-02T04:40:24.873Z,9.719152
2022-10-02T04:41:24.900Z,9.719219
2022-10-02T04:42:24.820Z,9.719275
2022-10-02T04:43:24.816Z,9.719288
2022-10-02T04:44:24.810Z,9.719202
2022-10-02T04:45:24.880Z,9.719236
2022-10-02T04:46:24.807Z,9.719296
2022-10-02T04:47:24.800Z,9.719222
2022-10-02T04:48:24.766Z,9.719286
2022-10-02T04:49:24.794Z,9.719243
2022-10-02T04:50:24.756Z,9.719226
2022-10-02T04:51:24.744Z,9.719171
2022-10-02T04:52:24.733Z,9.719044
2022-10-02T04:53:24.717Z,9.719053
2022-10-02T04:54:24.750Z,9.719112
2022-10-02T04:55:24.711Z,9.719048
2022-10-02T04:56:24.679Z,9.719040
2022-10-02T04:57:25.694Z,9.719127
2022-10-02T04:58:24.682Z,9.719140
2022-10-02T04:59:24.653Z,9.719217
2022-10-02T05:00:24.661Z,9.719112
2022-10-02T05:01:24.640Z,9.719071
2022-10-02T05:02:24.697Z,9.719139
2022-10-02T05:03:24.615Z,9.719161
2022-10-02T05:04:24.619Z,9.719113
2022-10-02T05:05:24.620Z,9.719097
2022-10-02T05:06:24.594Z,9.719089
2022-10-02T05:07:24.606Z,9.719095
2022-10-02T05:08:43.469Z,9.719022
2022-10-02T05:09:28.318Z,9.719058
2022-10-02T05:10:25.594Z,9.719134
2022-10-02T05:11:24.549Z,9.719090
2022-10-02T05:12:24.543Z,9.719103
2022-10-02T05:13:24.540Z,9.719146
2022-10-02T05:14:24.509Z,9.719072
2022-10-02T05:15:24.525Z,9.718825
2022-10-02T05:16:24.537Z,9.719014
2022-10-02T05:17:24.504Z,9.719166
2022-10-02T05:18:24.487Z,9.719243
2022-10-02T05:19:24.487Z,9.719328
2022-10-02T05:20:24.450Z,9.719257
2022-10-02T05:21:24.440Z,9.719291
2022-10-02T05:22:24.420Z,9.719107
2022-10-02T05:23:43.311Z,9.719170
2022-10-02T05:24:24.439Z,9.719038
2022-10-02T05:25:24.405Z,9.719203
2022-10-02T05:26:24.393Z,9.719240
2022-10-02T05:27:24.369Z,9.719249
2022-10-02T05:28:24.436Z,9.719205
2022-10-02T05:29:24.378Z,9.719271
2022-10-02T05:30:24.380Z,9.719224
2022-10-02T05:31:24.399Z,9.719323
2022-10-02T05:32:24.357Z,9.719224
2022-10-02T05:33:24.332Z,9.719342
2022-10-02T05:34:24.308Z,9.719159
2022-10-02T05:35:24.359Z,9.719257
2022-10-02T05:36:43.186Z,9.719081
2022-10-02T05:37:24.300Z,9.719218
2022-10-02T05:38:24.281Z,9.719172
2022-10-02T05:39:24.268Z,9.719227
2022-10-02T05:40:24.247Z,9.719149
2022-10-02T05:41:24.275Z,9.719180
2022-10-02T05:42:24.311Z,9.719194
2022-10-02T05:43:24.215Z,9.719188
2022-10-02T05:44:24.236Z,9.719263
2022-10-02T05:45:24.210Z,9.719249
2022-10-02T05:46:24.292Z,9.719169
2022-10-02T05:47:24.181Z,9.719223
2022-10-02T05:48:24.165Z,9.719287
2022-10-02T05:49:24.180Z,9.719061
2022-10-02T05:50:24.154Z,9.719116
2022-10-02T05:51:24.146Z,9.719178
2022-10-02T05:52:24.122Z,9.719195
2022-10-02T05:53:24.120Z,9.719238
2022-10-02T05:54:24.112Z,9.719234
2022-10-02T05:55:43.031Z,9.719187
2022-10-02T05:56:24.084Z,9.719240
2022-10-02T05:57:42.972Z,9.719295
2022-10-02T05:58:24.082Z,9.719361
2022-10-02T05:59:24.084Z,9.719352
2022-10-02T06:00:24.090Z,9.719278
2022-10-02T06:01:42.945Z,9.719228
2022-10-02T06:02:24.115Z,9.719026
2022-10-02T06:03:24.036Z,9.719219
2022-10-02T06:04:24.006Z,9.719286
2022-10-02T06:05:23.998Z,9.719095
2022-10-02T06:06:23.986Z,9.719108
2022-10-02T06:07:24.014Z,9.718912
2022-10-02T06:08:23.963Z,9.718873
2022-10-02T06:09:23.963Z,9.719311
2022-10-02T06:10:23.969Z,9.719420
2022-10-02T06:11:23.922Z,9.719448
2022-10-02T06:12:23.936Z,9.719378
2022-10-02T06:13:23.938Z,9.719283
2022-10-02T06:14:23.901Z,9.719428
2022-10-02T06:15:23.915Z,9.719402
2022-10-02T06:16:23.913Z,9.719496
2022-10-02T06:17:23.873Z,9.719344
2022-10-02T06:18:23.883Z,9.719272
2022-10-02T06:19:23.856Z,9.719296
2022-10-02T06:20:23.875Z,9.719317
2022-10-02T06:21:24.833Z,9.719231
2022-10-02T06:22:23.827Z,9.719334
2022-10-02T06:23:23.829Z,9.719339
2022-10-02T06:24:23.814Z,9.719190
2022-10-02T06:25:23.830Z,9.719340
2022-10-02T06:26:23.776Z,9.719290
2022-10-02T06:27:24.785Z,9.719187
2022-10-02T06:28:23.857Z,9.719093
2022-10-02T06:29:27.041Z,9.719214
2022-10-02T06:30:24.774Z,9.719395
2022-10-02T06:31:23.771Z,9.719290
2022-10-02T06:32:23.749Z,9.719149
2022-10-02T06:33:23.730Z,9.719294
2022-10-02T06:34:23.710Z,9.719191
2022-10-02T06:35:23.730Z,9.719344
2022-10-02T06:36:23.682Z,9.719300
2022-10-02T06:37:23.706Z,9.719252
2022-10-02T06:38:23.670Z,9.719233
2022-10-02T06:39:23.690Z,9.719134
2022-10-02T06:40:23.641Z,9.719202
2022-10-02T06:41:23.677Z,9.719310
2022-10-02T06:42:23.632Z,9.719284
2022-10-02T06:43:23.620Z,9.719320
2022-10-02T06:44:23.612Z,9.719490
2022-10-02T06:45:23.644Z,9.719343
2022-10-02T06:46:23.605Z,9.719261
2022-10-02T06:47:23.594Z,9.719416
2022-10-02T06:48:23.579Z,9.719561
2022-10-02T06:49:23.589Z,9.719529
2022-10-02T06:50:23.577Z,9.719445
2022-10-02T06:51:23.547Z,9.719399
2022-10-02T06:52:23.533Z,9.719407
2022-10-02T06:53:23.535Z,9.719489
2022-10-02T06:54:23.507Z,9.719350
2022-10-02T06:55:23.520Z,9.719478
2022-10-02T06:56:23.502Z,9.719561
2022-10-02T06:57:23.488Z,9.719602
2022-10-02T06:58:23.460Z,9.719550
2022-10-02T06:59:23.466Z,9.719489
2022-10-02T07:00:23.499Z,9.719537
2022-10-02T07:01:23.529Z,9.719538
2022-10-02T07:02:23.515Z,9.719476
2022-10-02T07:03:23.419Z,9.719530
2022-10-02T07:04:23.396Z,9.719508
2022-10-02T07:05:23.407Z,9.719459
2022-10-02T07:06:23.410Z,9.719475
2022-10-02T07:07:23.400Z,9.719464
2022-10-02T07:08:23.382Z,9.719338
2022-10-02T07:09:23.362Z,9.719351
2022-10-02T07:10:23.392Z,9.719343
2022-10-02T07:11:23.344Z,9.719341
2022-10-02T07:12:23.340Z,9.719235
2022-10-02T07:13:23.326Z,9.719259
2022-10-02T07:14:23.342Z,9.719322
2022-10-02T07:15:23.313Z,9.719405
2022-10-02T07:16:23.367Z,9.719421
2022-10-02T07:17:23.315Z,9.719473
2022-10-02T07:18:23.269Z,9.719457
2022-10-02T07:19:23.262Z,9.719352
2022-10-02T07:20:23.316Z,9.719343
2022-10-02T07:21:23.252Z,9.719398
2022-10-02T07:22:43.564Z,9.719501
2022-10-02T07:23:25.244Z,9.719337
2022-10-02T07:24:23.217Z,9.719399
2022-10-02T07:25:23.218Z,9.719453
2022-10-02T07:26:23.196Z,9.719406
2022-10-02T07:27:23.185Z,9.719436
2022-10-02T07:28:23.231Z,9.719442
2022-10-02T07:29:23.161Z,9.719329
2022-10-02T07:30:23.169Z,9.719411
2022-10-02T07:31:23.227Z,9.719373
2022-10-02T07:32:23.151Z,9.719337
2022-10-02T07:33:26.577Z,9.719358
2022-10-02T07:34:24.136Z,9.719407
2022-10-02T07:35:23.109Z,9.719406
2022-10-02T07:36:23.097Z,9.719563
2022-10-02T07:37:23.100Z,9.719631
2022-10-02T07:38:23.068Z,9.719720
2022-10-02T07:39:23.065Z,9.719462
2022-10-02T07:40:23.059Z,9.719547
2022-10-02T07:41:23.048Z,9.719764
2022-10-02T07:42:23.081Z,9.720037
2022-10-02T07:43:23.025Z,9.720034
2022-10-02T07:44:23.050Z,9.719737
2022-10-02T07:45:23.042Z,9.720082
2022-10-02T07:46:22.980Z,9.720058
2022-10-02T07:47:22.982Z,9.720139
2022-10-02T07:48:22.984Z,9.720432
2022-10-02T07:49:22.994Z,9.720165
2022-10-02T07:50:22.953Z,9.720055
2022-10-02T07:51:22.941Z,9.719923
2022-10-02T07:52:22.934Z,9.719593
2022-10-02T07:53:22.920Z,9.719275
2022-10-02T07:54:22.921Z,9.719420
2022-10-02T07:55:22.940Z,9.719485
2022-10-02T07:56:22.975Z,9.719673
2022-10-02T07:57:22.890Z,9.719543
2022-10-02T07:58:22.867Z,9.719538
2022-10-02T07:59:22.864Z,9.719878
2022-10-02T08:00:22.868Z,9.719472
2022-10-02T08:01:22.853Z,9.719797
2022-10-02T08:02:22.908Z,9.719552
2022-10-02T08:03:22.953Z,9.719551
2022-10-02T08:04:22.808Z,9.719479
2022-10-02T08:05:22.833Z,9.719191
2022-10-02T08:06:22.797Z,9.719328
2022-10-02T08:07:22.786Z,9.719176
2022-10-02T08:08:22.811Z,9.719243
2022-10-02T08:09:22.761Z,9.719086
2022-10-02T08:10:22.767Z,9.719236
2022-10-02T08:11:22.775Z,9.719296
2022-10-02T08:12:22.775Z,9.719266
2022-10-02T08:13:22.835Z,9.719362
2022-10-02T08:14:22.735Z,9.719137
2022-10-02T08:15:22.707Z,9.718905
2022-10-02T08:16:29.685Z,9.719100
2022-10-02T08:17:22.683Z,9.719276
2022-10-02T08:18:34.297Z,9.719097
2022-10-02T08:19:24.678Z,9.719198
2022-10-02T08:20:25.367Z,9.719325
2022-10-02T08:21:22.669Z,9.719199
2022-10-02T08:22:22.633Z,9.719241
2022-10-02T08:23:22.624Z,9.719347
2022-10-02T08:24:22.629Z,9.719555
2022-10-02T08:25:22.604Z,9.719396
2022-10-02T08:26:23.592Z,9.719492
2022-10-02T08:27:22.578Z,9.719447
2022-10-02T08:28:22.615Z,9.719598
2022-10-02T08:29:22.576Z,9.719504
2022-10-02T08:30:22.559Z,9.719531
2022-10-02T08:31:22.595Z,9.719501
2022-10-02T08:32:22.546Z,9.719502
2022-10-02T08:33:22.537Z,9.719530
2022-10-02T08:34:22.513Z,9.719599
2022-10-02T08:35:22.500Z,9.719550
2022-10-02T08:36:22.484Z,9.719522
2022-10-02T08:37:22.476Z,9.719686
2022-10-02T08:38:22.480Z,9.719694
2022-10-02T08:39:22.488Z,9.719518
2022-10-02T08:40:22.456Z,9.719504
2022-10-02T08:41:22.459Z,9.719564
2022-10-02T08:42:22.471Z,9.719406
2022-10-02T08:43:22.430Z,9.719360
2022-10-02T08:44:22.415Z,9.719441
2022-10-02T08:45:22.424Z,9.719148
2022-10-02T08:46:22.404Z,9.719030
2022-10-02T08:47:22.412Z,9.719328
2022-10-02T08:48:22.385Z,9.719318
2022-10-02T08:49:22.370Z,9.719338
2022-10-02T08:50:22.369Z,9.719446
2022-10-02T08:51:22.352Z,9.719299
2022-10-02T08:52:22.337Z,9.719224
2022-10-02T08:53:22.347Z,9.719303
2022-10-02T08:54:22.317Z,9.719509
2022-10-02T08:55:22.306Z,9.719334
2022-10-02T08:56:22.308Z,9.719354
2022-10-02T08:57:22.284Z,9.719266
2022-10-02T08:58:22.278Z,9.719332
2022-10-02T08:59:22.283Z,9.719059
2022-10-02T09:00:22.262Z,9.719296
2022-10-02T09:01:22.304Z,9.719240
2022-10-02T09:02:22.310Z,9.719067
2022-10-02T09:03:22.263Z,9.719162
2022-10-02T09:04:22.229Z,9.719212
2022-10-02T09:05:22.212Z,9.719233
2022-10-02T09:06:22.201Z,9.719247
2022-10-02T09:07:27.366Z,9.719197
2022-10-02T09:08:24.195Z,9.719296
2022-10-02T09:09:22.170Z,9.719236
2022-10-02T09:10:22.161Z,9.719151
2022-10-02T09:11:22.154Z,9.719208
2022-10-02T09:12:22.147Z,9.719229
2022-10-02T09:13:22.153Z,9.719231
2022-10-02T09:14:22.138Z,9.719216
2022-10-02T09:15:22.108Z,9.719065
2022-10-02T09:16:22.162Z,9.719066
2022-10-02T09:17:22.098Z,9.719091
2022-10-02T09:18:22.090Z,9.719122
2022-10-02T09:19:22.095Z,9.719181
2022-10-02T09:20:22.060Z,9.719097
2022-10-02T09:21:22.056Z,9.719053
2022-10-02T09:22:22.072Z,9.719030
2022-10-02T09:23:22.029Z,9.719130
2022-10-02T09:24:22.025Z,9.719070
2022-10-02T09:25:22.013Z,9.719095
2022-10-02T09:26:21.992Z,9.719057
2022-10-02T09:27:21.978Z,9.719090
2022-10-02T09:28:22.051Z,9.719084
2022-10-02T09:29:21.982Z,9.719119
2022-10-02T09:30:21.952Z,9.719150
2022-10-02T09:31:23.004Z,9.719110
2022-10-02T09:32:22.964Z,9.719191
2022-10-02T09:33:21.924Z,9.719183
2022-10-02T09:34:21.916Z,9.719150
2022-10-02T09:35:21.910Z,9.719178
2022-10-02T09:36:21.895Z,9.719177
2022-10-02T09:37:21.902Z,9.719186
2022-10-02T09:38:21.878Z,9.719199
2022-10-02T09:39:21.859Z,9.719108
2022-10-02T09:40:21.855Z,9.719117
2022-10-02T09:41:21.851Z,9.719140
2022-10-02T09:42:21.857Z,9.719148
2022-10-02T09:43:21.823Z,9.719183
2022-10-02T09:44:21.825Z,9.719177
2022-10-02T09:45:21.803Z,9.719151
2022-10-02T09:46:21.783Z,9.719210
2022-10-02T09:47:21.801Z,9.718996
2022-10-02T09:48:21.777Z,9.718948
2022-10-02T09:49:21.759Z,9.719174
2022-10-02T09:50:21.759Z,9.719234
2022-10-02T09:51:21.955Z,9.719164
2022-10-02T09:52:21.738Z,9.719254
2022-10-02T09:53:21.724Z,9.719235
2022-10-02T09:54:21.722Z,9.719138
2022-10-02T09:55:21.708Z,9.719016
2022-10-02T09:56:21.713Z,9.719247
2022-10-02T09:57:21.683Z,9.719192
2022-10-02T09:58:21.678Z,9.719197
2022-10-02T09:59:21.661Z,9.719122
2022-10-02T10:00:21.649Z,9.719156
2022-10-02T10:01:21.673Z,9.719244
2022-10-02T10:02:25.563Z,9.719201
2022-10-02T10:03:22.650Z,9.719136
2022-10-02T10:04:21.626Z,9.719191
2022-10-02T10:05:21.599Z,9.719210
2022-10-02T10:06:21.607Z,9.719122
2022-10-02T10:07:21.597Z,9.719216
2022-10-02T10:08:21.573Z,9.719260
2022-10-02T10:09:21.583Z,9.719259
2022-10-02T10:10:21.564Z,9.719263
2022-10-02T10:11:21.553Z,9.719305
2022-10-02T10:12:21.533Z,9.719189
2022-10-02T10:13:21.519Z,9.719351
2022-10-02T10:14:21.512Z,9.719171
2022-10-02T10:15:21.527Z,9.719144
2022-10-02T10:16:21.588Z,9.719146
2022-10-02T10:17:21.493Z,9.719192
2022-10-02T10:18:21.474Z,9.719216
2022-10-02T10:19:21.472Z,9.719337
2022-10-02T10:20:21.462Z,9.719193
2022-10-02T10:21:21.473Z,9.719110
2022-10-02T10:22:21.445Z,9.719247
2022-10-02T10:23:21.427Z,9.719387
2022-10-02T10:24:21.427Z,9.719053
2022-10-02T10:25:21.406Z,9.718940
2022-10-02T10:26:21.419Z,9.718802
2022-10-02T10:27:21.382Z,9.718972
2022-10-02T10:28:21.429Z,9.719108
2022-10-02T10:29:21.380Z,9.719172
2022-10-02T10:30:21.365Z,9.719220
2022-10-02T10:31:21.390Z,9.718871
2022-10-02T10:32:21.350Z,9.718869
2022-10-02T10:33:21.332Z,9.719126
2022-10-02T10:34:21.333Z,9.718931
2022-10-02T10:35:21.308Z,9.718907
2022-10-02T10:36:21.293Z,9.719106
2022-10-02T10:37:21.293Z,9.719137
2022-10-02T10:38:21.287Z,9.719151
2022-10-02T10:39:21.265Z,9.719144
2022-10-02T10:40:21.252Z,9.718961
2022-10-02T10:41:21.239Z,9.718925
2022-10-02T10:42:21.230Z,9.718799
2022-10-02T10:43:21.234Z,9.718727
2022-10-02T10:44:21.205Z,9.718953
2022-10-02T10:45:21.232Z,9.719018
2022-10-02T10:46:21.262Z,9.718897
2022-10-02T10:47:21.181Z,9.718928
2022-10-02T10:48:21.178Z,9.718901
2022-10-02T10:49:21.198Z,9.719076
2022-10-02T10:50:21.160Z,9.719192
2022-10-02T10:51:21.145Z,9.719097
2022-10-02T10:52:21.127Z,9.719218
2022-10-02T10:53:21.127Z,9.719317
2022-10-02T10:54:21.116Z,9.719246
2022-10-02T10:55:21.112Z,9.719206
2022-10-02T10:56:21.081Z,9.719186
2022-10-02T10:57:21.074Z,9.719205
2022-10-02T10:58:21.060Z,9.719290
2022-10-02T10:59:25.137Z,9.719168
2022-10-02T11:00:22.047Z,9.718834
2022-10-02T11:01:21.171Z,9.719027
2022-10-02T11:02:21.116Z,9.719027
2022-10-02T11:03:21.029Z,9.719027
2022-10-02T11:04:21.057Z,9.719027
2022-10-02T11:05:20.989Z,9.719027
2022-10-02T11:06:20.981Z,9.719082
2022-10-02T11:07:20.972Z,9.719546
2022-10-02T11:08:20.955Z,9.719143
2022-10-02T11:09:21.962Z,9.718895
2022-10-02T11:10:20.975Z,9.718755
2022-10-02T11:11:20.937Z,9.719103
2022-10-02T11:12:20.923Z,9.719009
2022-10-02T11:13:20.914Z,9.718735
2022-10-02T11:14:20.909Z,9.719016
2022-10-02T11:15:20.921Z,9.719381
2022-10-02T11:16:20.956Z,9.719048
2022-10-02T11:17:20.883Z,9.719213
2022-10-02T11:18:20.865Z,9.719161
2022-10-02T11:19:21.758Z,9.719273
2022-10-02T11:20:21.853Z,9.719237
2022-10-02T11:21:20.872Z,9.719165
2022-10-02T11:22:20.830Z,9.719243
2022-10-02T11:23:20.825Z,9.719201
2022-10-02T11:24:20.807Z,9.719310
2022-10-02T11:25:20.792Z,9.719390
2022-10-02T11:26:20.808Z,9.719431
2022-10-02T11:27:20.818Z,9.719419
2022-10-02T11:28:20.845Z,9.719378
2022-10-02T11:29:20.754Z,9.719406
2022-10-02T11:30:20.773Z,9.719466
2022-10-02T11:31:20.751Z,9.719353
2022-10-02T11:32:20.723Z,9.719308
2022-10-02T11:33:20.740Z,9.719338
2022-10-02T11:34:20.695Z,9.719334
2022-10-02T11:35:20.682Z,9.719359
2022-10-02T11:36:20.678Z,9.719272
2022-10-02T11:37:20.663Z,9.719300
2022-10-02T11:38:20.657Z,9.719298
2022-10-02T11:39:20.655Z,9.719296
2022-10-02T11:40:20.659Z,9.719297
2022-10-02T11:41:20.638Z,9.719302
2022-10-02T11:42:20.615Z,9.719310
2022-10-02T11:43:20.604Z,9.719322
2022-10-02T11:44:20.617Z,9.719308